createdAt,value
2018-09-13T00:00:41.117Z,99.90
2018-09-13T00:03:09.526Z,99.90
2018-09-13T00:05:38.048Z,99.90
2018-09-13T00:08:06.447Z,99.90
2018-09-13T00:10:35.053Z,99.90
2018-09-13T00:13:03.426Z,99.90
2018-09-13T00:15:31.867Z,99.90
2018-09-13T00:18:00.127Z,99.90
2018-09-13T00:20:28.515Z,99.90
2018-09-13T00:22:56.993Z,99.90
2018-09-13T00:25:25.204Z,99.90
2018-09-13T00:27:54.378Z,99.90
2018-09-13T00:30:22.531Z,99.90
2018-09-13T00:32:51.044Z,99.90
2018-09-13T00:35:19.452Z,99.90
2018-09-13T00:37:47.856Z,99.90
2018-09-13T00:40:16.359Z,99.90
2018-09-13T00:42:44.852Z,99.90
2018-09-13T00:45:13.334Z,99.90
2018-09-13T00:47:42.527Z,99.90
2018-09-13T00:50:11.045Z,99.90
2018-09-13T00:52:39.381Z,99.90
2018-09-13T00:55:07.983Z,99.90
2018-09-13T00:57:36.707Z,99.90
2018-09-13T01:00:05.401Z,99.90
2018-09-13T01:02:33.924Z,99.90
2018-09-13T01:05:06.287Z,99.90
2018-09-13T01:07:34.775Z,99.90
2018-09-13T01:10:03.611Z,99.90
2018-09-13T01:12:31.873Z,99.90
2018-09-13T01:15:01.439Z,99.90
2018-09-13T01:17:29.700Z,99.90
2018-09-13T01:19:58.220Z,99.90
2018-09-13T01:22:26.608Z,99.90
2018-09-13T01:24:55.784Z,99.90
2018-09-13T01:27:25.140Z,99.90
2018-09-13T01:29:53.330Z,99.90
2018-09-13T01:32:21.870Z,99.90
2018-09-13T01:34:50.230Z,99.90
2018-09-13T01:37:19.214Z,99.90
2018-09-13T01:39:47.646Z,99.90
2018-09-13T01:42:16.052Z,99.90
2018-09-13T01:44:44.478Z,99.90
2018-09-13T01:47:14.912Z,99.90
2018-09-13T01:49:43.312Z,99.90
2018-09-13T01:52:11.684Z,99.90
2018-09-13T01:54:40.189Z,99.90
2018-09-13T01:57:08.633Z,99.90
2018-09-13T01:59:36.915Z,99.90
2018-09-13T02:02:05.292Z,99.90
2018-09-13T02:04:35.843Z,99.90
2018-09-13T02:07:04.233Z,99.90
2018-09-13T02:09:32.652Z,99.90
2018-09-13T02:12:01.056Z,99.90
2018-09-13T02:14:30.689Z,99.90
2018-09-13T02:16:58.956Z,99.90
2018-09-13T02:19:27.365Z,99.90
2018-09-13T02:21:55.811Z,99.90
2018-09-13T02:24:27.768Z,99.90
2018-09-13T02:26:56.044Z,99.90
2018-09-13T02:29:24.350Z,99.90
2018-09-13T02:31:52.742Z,99.90
2018-09-13T02:34:21.038Z,99.90
2018-09-13T02:36:49.285Z,99.90
2018-09-13T02:39:17.561Z,99.90
2018-09-13T02:41:46.008Z,99.90
2018-09-13T02:44:14.583Z,99.90
2018-09-13T02:46:43.013Z,99.90
2018-09-13T02:49:11.495Z,99.90
2018-09-13T02:51:39.933Z,99.90
2018-09-13T02:54:08.441Z,99.90
2018-09-13T02:56:36.844Z,99.90
2018-09-13T02:59:05.229Z,99.90
2018-09-13T03:01:33.652Z,99.90
2018-09-13T03:04:01.717Z,99.90
2018-09-13T03:06:30.025Z,99.90
2018-09-13T03:08:58.423Z,99.90
2018-09-13T03:11:26.701Z,99.90
2018-09-13T03:13:55.728Z,99.90
2018-09-13T03:16:24.157Z,99.90
2018-09-13T03:18:53.371Z,99.90
2018-09-13T03:21:22.697Z,99.90
2018-09-13T03:23:50.969Z,99.90
2018-09-13T03:26:19.346Z,99.90
2018-09-13T03:28:47.862Z,99.90
2018-09-13T03:31:16.242Z,99.90
2018-09-13T03:33:44.767Z,99.90
2018-09-13T03:36:12.979Z,99.90
2018-09-13T03:38:41.267Z,99.90
2018-09-13T03:41:13.364Z,99.90
2018-09-13T03:43:41.685Z,99.90
2018-09-13T03:46:10.040Z,99.90
2018-09-13T03:48:38.457Z,99.90
2018-09-13T03:51:12.270Z,99.90
2018-09-13T03:53:40.684Z,99.90
2018-09-13T03:56:09.025Z,99.90
2018-09-13T03:58:37.107Z,99.90
2018-09-13T04:01:05.662Z,99.90
2018-09-13T04:03:34.179Z,99.90
2018-09-13T04:06:03.162Z,99.90
2018-09-13T04:08:31.799Z,99.90
2018-09-13T04:11:02.445Z,99.90
2018-09-13T04:13:30.836Z,99.90
2018-09-13T04:15:59.185Z,99.90
2018-09-13T04:18:27.726Z,99.90
2018-09-13T04:20:56.014Z,99.90
2018-09-13T04:23:24.438Z,99.90
2018-09-13T04:25:52.745Z,99.90
2018-09-13T04:28:20.971Z,99.90
2018-09-13T04:30:49.355Z,99.90
2018-09-13T04:33:17.839Z,99.90
2018-09-13T04:35:46.290Z,99.90
2018-09-13T04:38:16.885Z,99.90
2018-09-13T04:40:45.186Z,99.90
2018-09-13T04:43:13.791Z,99.90
2018-09-13T04:45:42.215Z,99.90
2018-09-13T04:48:10.672Z,99.90
2018-09-13T04:50:39.193Z,99.90
2018-09-13T04:53:07.602Z,99.90
2018-09-13T04:55:35.861Z,99.90
2018-09-13T04:58:04.478Z,99.90
2018-09-13T05:00:36.452Z,99.90
2018-09-13T05:03:04.811Z,99.90
2018-09-13T05:05:33.067Z,99.90
2018-09-13T05:08:01.453Z,99.90
2018-09-13T05:10:33.008Z,99.90
2018-09-13T05:13:01.538Z,99.90
2018-09-13T05:15:29.916Z,99.90
2018-09-13T05:17:58.338Z,99.90
2018-09-13T05:20:26.724Z,99.90
2018-09-13T05:22:55.055Z,99.90
2018-09-13T05:25:23.422Z,99.90
2018-09-13T05:27:51.812Z,99.90
2018-09-13T05:30:20.226Z,99.90
2018-09-13T05:32:48.623Z,99.90
2018-09-13T05:35:17.023Z,99.90
2018-09-13T05:37:45.639Z,99.90
2018-09-13T05:40:13.935Z,99.90
2018-09-13T05:42:42.439Z,99.90
2018-09-13T05:45:11.228Z,99.90
2018-09-13T05:47:43.299Z,99.90
2018-09-13T05:50:11.626Z,99.90
2018-09-13T05:52:39.940Z,99.90
2018-09-13T05:55:08.404Z,99.90
2018-09-13T05:57:36.528Z,99.90
2018-09-13T06:00:05.428Z,99.90
2018-09-13T06:02:34.032Z,99.90
2018-09-13T06:05:02.408Z,99.90
2018-09-13T06:07:30.613Z,99.90
2018-09-13T06:09:59.096Z,99.90
2018-09-13T06:12:28.028Z,99.90
2018-09-13T06:14:56.328Z,99.90
2018-09-13T06:17:24.623Z,99.90
2018-09-13T06:19:53.788Z,99.90
2018-09-13T06:22:21.935Z,99.90
2018-09-13T06:24:50.205Z,99.90
2018-09-13T06:27:18.545Z,99.90
2018-09-13T06:29:46.919Z,99.90
2018-09-13T06:32:15.221Z,99.90
2018-09-13T06:34:43.520Z,99.90
2018-09-13T06:37:12.635Z,99.90
2018-09-13T06:39:41.164Z,99.90
2018-09-13T06:42:09.553Z,99.90
2018-09-13T06:44:37.942Z,99.90
2018-09-13T06:47:06.123Z,99.90
2018-09-13T06:49:46.005Z,99.90
2018-09-13T06:52:14.290Z,99.90
2018-09-13T06:54:42.705Z,99.90
2018-09-13T06:57:10.993Z,99.90
2018-09-13T06:59:39.287Z,99.90
2018-09-13T07:02:07.765Z,99.90
2018-09-13T07:04:36.194Z,99.90
2018-09-13T07:07:04.870Z,99.90
2018-09-13T07:09:33.320Z,99.90
2018-09-13T07:12:02.756Z,99.90
2018-09-13T07:14:31.339Z,99.90
2018-09-13T07:16:59.817Z,99.90
2018-09-13T07:19:28.433Z,99.90
2018-09-13T07:21:56.715Z,99.90
2018-09-13T07:24:24.825Z,99.90
2018-09-13T07:26:53.135Z,99.90
2018-09-13T07:29:21.395Z,99.90
2018-09-13T07:31:49.918Z,99.90
2018-09-13T07:34:18.370Z,99.90
2018-09-13T07:36:46.882Z,99.90
2018-09-13T07:39:15.568Z,99.90
2018-09-13T07:41:43.905Z,99.90
2018-09-13T07:44:12.227Z,99.90
2018-09-13T07:46:41.100Z,99.90
2018-09-13T07:49:09.714Z,99.90
2018-09-13T07:51:37.944Z,99.90
2018-09-13T07:54:06.435Z,99.90
2018-09-13T07:56:34.692Z,99.90
2018-09-13T07:59:03.001Z,99.90
2018-09-13T08:01:31.107Z,99.90
2018-09-13T08:03:59.531Z,99.90
2018-09-13T08:06:27.790Z,99.90
2018-09-13T08:08:56.225Z,99.90
2018-09-13T08:11:24.699Z,99.90
2018-09-13T08:13:53.008Z,99.90
2018-09-13T08:16:21.512Z,99.90
2018-09-13T08:18:49.821Z,99.90
2018-09-13T08:21:18.209Z,99.50
2018-09-13T08:23:46.498Z,97.30
2018-09-13T08:26:14.886Z,96.70
2018-09-13T08:28:43.302Z,97.00
2018-09-13T08:31:11.704Z,97.20
2018-09-13T08:33:40.200Z,97.70
2018-09-13T08:36:08.521Z,97.80
2018-09-13T08:38:36.912Z,98.10
2018-09-13T08:41:05.323Z,98.50
2018-09-13T08:43:33.818Z,99.00
2018-09-13T08:46:02.181Z,99.00
2018-09-13T08:48:30.505Z,99.30
2018-09-13T08:50:58.914Z,99.50
2018-09-13T08:53:27.185Z,99.70
2018-09-13T08:55:55.719Z,99.80
2018-09-13T08:58:23.889Z,99.90
2018-09-13T09:00:52.392Z,99.90
2018-09-13T09:03:20.792Z,99.90
2018-09-13T09:05:49.209Z,99.90
2018-09-13T09:08:17.373Z,99.90
2018-09-13T09:10:45.759Z,99.90
2018-09-13T09:13:17.392Z,99.90
2018-09-13T09:15:45.768Z,99.90
2018-09-13T09:18:14.147Z,99.90
2018-09-13T09:20:42.560Z,99.90
2018-09-13T09:23:10.948Z,99.90
2018-09-13T09:25:39.354Z,99.90
2018-09-13T09:28:07.757Z,99.90
2018-09-13T09:30:36.383Z,99.90
2018-09-13T09:33:04.758Z,99.90
2018-09-13T09:35:33.070Z,99.90
2018-09-13T09:38:01.368Z,99.90
2018-09-13T09:40:29.778Z,99.90
2018-09-13T09:42:58.241Z,99.90
2018-09-13T09:45:26.668Z,99.90
2018-09-13T09:47:54.832Z,99.90
2018-09-13T09:50:23.090Z,99.90
2018-09-13T09:52:51.661Z,99.90
2018-09-13T09:55:21.883Z,99.90
2018-09-13T09:57:50.378Z,99.90
2018-09-13T10:00:24.238Z,99.90
2018-09-13T10:02:52.628Z,99.90
2018-09-13T10:05:21.072Z,99.90
2018-09-13T10:07:49.950Z,99.90
2018-09-13T10:10:18.192Z,99.90
2018-09-13T10:12:46.335Z,99.90
2018-09-13T10:15:20.158Z,99.90
2018-09-13T10:17:54.062Z,99.90
2018-09-13T10:20:27.942Z,99.90
2018-09-13T10:23:01.750Z,99.90
2018-09-13T10:25:35.265Z,99.90
2018-09-13T10:28:09.014Z,99.90
2018-09-13T10:30:42.583Z,99.90
2018-09-13T10:33:16.652Z,99.90
2018-09-13T10:35:50.206Z,99.90
2018-09-13T10:38:23.921Z,99.90
2018-09-13T10:40:57.776Z,99.90
2018-09-13T10:43:32.219Z,99.70
2018-09-13T10:46:06.000Z,99.70
2018-09-13T10:48:34.524Z,99.10
2018-09-13T10:51:08.455Z,99.00
2018-09-13T10:53:39.115Z,98.90
2018-09-13T10:56:07.967Z,98.70
2018-09-13T10:58:36.409Z,98.60
2018-09-13T11:01:04.459Z,98.70
2018-09-13T11:03:32.973Z,98.80
2018-09-13T11:06:01.427Z,99.30
2018-09-13T11:08:29.735Z,99.80
2018-09-13T11:10:58.942Z,99.90
2018-09-13T11:13:35.221Z,99.90
2018-09-13T11:16:03.764Z,99.90
2018-09-13T11:18:32.066Z,99.90
2018-09-13T11:21:00.300Z,99.90
2018-09-13T11:23:28.338Z,99.90
2018-09-13T11:25:56.752Z,99.90
2018-09-13T11:28:25.146Z,99.90
2018-09-13T11:30:59.175Z,99.90
2018-09-13T11:33:27.782Z,99.90
2018-09-13T11:35:56.418Z,99.90
2018-09-13T11:38:25.392Z,99.90
2018-09-13T11:40:54.200Z,99.90
2018-09-13T11:43:22.276Z,99.90
2018-09-13T11:45:50.670Z,99.90
2018-09-13T11:48:19.116Z,99.90
2018-09-13T11:50:48.219Z,99.90
2018-09-13T11:53:16.723Z,99.90
2018-09-13T11:55:45.506Z,99.90
2018-09-13T11:58:15.063Z,99.90
2018-09-13T12:00:43.705Z,99.90
2018-09-13T12:03:13.061Z,99.90
2018-09-13T12:05:41.578Z,99.90
2018-09-13T12:08:09.878Z,99.90
2018-09-13T12:10:38.174Z,99.90
2018-09-13T12:13:06.718Z,99.90
2018-09-13T12:15:35.176Z,99.90
2018-09-13T12:18:03.645Z,99.90
2018-09-13T12:20:31.877Z,99.90
2018-09-13T12:23:01.394Z,99.90
2018-09-13T12:25:30.106Z,99.90
2018-09-13T12:27:58.410Z,99.90
2018-09-13T12:30:27.732Z,99.90
2018-09-13T12:32:56.250Z,99.90
2018-09-13T12:35:24.589Z,99.90
2018-09-13T12:37:53.025Z,99.90
2018-09-13T12:40:21.419Z,99.90
2018-09-13T12:42:49.815Z,99.90
2018-09-13T12:45:18.141Z,99.90
2018-09-13T12:47:46.428Z,99.90
2018-09-13T12:50:14.733Z,99.90
2018-09-13T12:52:42.808Z,99.90
2018-09-13T12:55:11.120Z,99.90
2018-09-13T12:57:39.758Z,99.90
2018-09-13T13:00:09.509Z,99.90
2018-09-13T13:02:38.089Z,99.90
2018-09-13T13:05:06.530Z,99.90
2018-09-13T13:07:35.117Z,99.90
2018-09-13T13:10:03.771Z,99.90
2018-09-13T13:12:32.266Z,99.90
2018-09-13T13:15:00.662Z,99.90
2018-09-13T13:17:29.169Z,99.90
2018-09-13T13:19:57.660Z,99.90
2018-09-13T13:22:25.955Z,99.90
2018-09-13T13:24:54.242Z,99.90
2018-09-13T13:27:23.321Z,99.90
2018-09-13T13:29:51.769Z,99.90
2018-09-13T13:32:20.255Z,99.90
2018-09-13T13:34:48.563Z,99.90
2018-09-13T13:37:17.177Z,99.90
2018-09-13T13:39:45.562Z,99.90
2018-09-13T13:42:14.076Z,99.90
2018-09-13T13:44:42.598Z,99.90
2018-09-13T13:47:11.206Z,99.90
2018-09-13T13:49:39.796Z,99.90
2018-09-13T13:52:08.397Z,99.90
2018-09-13T13:54:36.812Z,99.90
2018-09-13T13:57:05.360Z,99.90
2018-09-13T13:59:33.712Z,99.90
2018-09-13T14:02:03.126Z,99.90
2018-09-13T14:04:31.560Z,99.90
2018-09-13T14:07:00.023Z,99.90
2018-09-13T14:09:28.612Z,99.90
2018-09-13T14:11:57.002Z,99.90
2018-09-13T14:14:25.586Z,99.90
2018-09-13T14:16:54.064Z,99.90
2018-09-13T14:19:22.762Z,99.90
2018-09-13T14:21:51.435Z,99.90
2018-09-13T14:24:20.126Z,99.90
2018-09-13T14:26:48.529Z,99.90
2018-09-13T14:29:17.755Z,99.90
2018-09-13T14:31:46.001Z,99.90
2018-09-13T14:34:14.255Z,99.90
2018-09-13T14:36:42.868Z,99.90
2018-09-13T14:39:11.680Z,99.90
2018-09-13T14:41:40.192Z,99.90
2018-09-13T14:44:08.664Z,99.90
2018-09-13T14:46:37.469Z,99.90
2018-09-13T14:49:06.325Z,99.90
2018-09-13T14:51:35.217Z,99.90
2018-09-13T14:54:03.810Z,99.90
2018-09-13T14:56:32.127Z,99.90
2018-09-13T14:59:00.581Z,99.90
2018-09-13T15:01:29.120Z,99.90
2018-09-13T15:03:57.612Z,99.90
2018-09-13T15:06:25.902Z,99.90
2018-09-13T15:08:54.420Z,99.90
2018-09-13T15:11:23.460Z,99.90
2018-09-13T15:13:52.547Z,99.90
2018-09-13T15:16:21.053Z,99.90
2018-09-13T15:18:49.486Z,99.90
2018-09-13T15:21:17.950Z,99.90
2018-09-13T15:23:46.869Z,99.90
2018-09-13T15:26:15.569Z,99.90
2018-09-13T15:28:43.953Z,99.90
2018-09-13T15:31:12.439Z,99.90
2018-09-13T15:33:40.854Z,99.90
2018-09-13T15:36:09.190Z,99.90
2018-09-13T15:38:37.479Z,99.90
2018-09-13T15:41:05.849Z,99.90
2018-09-13T15:43:34.219Z,99.90
2018-09-13T15:46:02.764Z,99.90
2018-09-13T15:48:31.254Z,99.90
2018-09-13T15:50:59.747Z,99.90
2018-09-13T15:53:28.169Z,99.90
2018-09-13T15:55:56.521Z,99.90
2018-09-13T15:58:24.878Z,99.90
2018-09-13T16:00:53.353Z,99.90
2018-09-13T16:03:21.739Z,99.90
2018-09-13T16:05:50.263Z,99.90
2018-09-13T16:08:18.762Z,99.90
2018-09-13T16:10:47.158Z,99.90
2018-09-13T16:13:16.474Z,99.90
2018-09-13T16:15:44.887Z,99.90
2018-09-13T16:18:13.257Z,99.90
2018-09-13T16:20:42.014Z,99.90
2018-09-13T16:23:10.493Z,99.90
2018-09-13T16:25:38.867Z,99.90
2018-09-13T16:28:07.243Z,99.90
2018-09-13T16:30:35.730Z,99.90
2018-09-13T16:33:04.311Z,99.90
2018-09-13T16:35:32.572Z,99.90
2018-09-13T16:38:07.796Z,99.90
2018-09-13T16:40:41.889Z,99.90
2018-09-13T16:43:12.150Z,99.90
2018-09-13T16:45:40.711Z,99.90
2018-09-13T16:48:09.214Z,99.90
2018-09-13T16:50:37.752Z,99.90
2018-09-13T16:53:06.218Z,99.90
2018-09-13T16:55:34.492Z,99.90
2018-09-13T16:58:02.882Z,99.90
2018-09-13T17:00:31.181Z,99.90
2018-09-13T17:02:59.421Z,99.90
2018-09-13T17:05:28.121Z,99.90
2018-09-13T17:07:56.615Z,99.90
2018-09-13T17:10:24.985Z,99.90
2018-09-13T17:12:53.423Z,99.90
2018-09-13T17:15:21.921Z,99.90
2018-09-13T17:17:50.187Z,99.90
2018-09-13T17:20:18.724Z,99.90
2018-09-13T17:22:47.084Z,99.90
2018-09-13T17:25:15.412Z,99.90
2018-09-13T17:27:43.854Z,99.90
2018-09-13T17:30:12.012Z,99.90
2018-09-13T17:32:40.492Z,99.90
2018-09-13T17:35:08.721Z,99.90
2018-09-13T17:37:36.889Z,99.90
2018-09-13T17:40:05.398Z,99.90
2018-09-13T17:42:34.089Z,99.90
2018-09-13T17:45:02.621Z,99.90
2018-09-13T17:47:31.491Z,99.90
2018-09-13T17:49:59.937Z,99.90
2018-09-13T17:52:28.313Z,99.90
2018-09-13T17:54:56.803Z,99.90
2018-09-13T17:57:25.197Z,99.90
2018-09-13T17:59:53.599Z,99.90
2018-09-13T18:02:21.918Z,99.90
2018-09-13T18:04:50.210Z,99.90
2018-09-13T18:07:18.700Z,99.90
2018-09-13T18:09:47.141Z,99.90
2018-09-13T18:12:16.021Z,99.90
2018-09-13T18:14:44.327Z,99.90
2018-09-13T18:17:12.974Z,99.90
2018-09-13T18:19:41.658Z,99.90
2018-09-13T18:22:10.241Z,99.90
2018-09-13T18:24:39.048Z,99.90
2018-09-13T18:27:07.797Z,99.90
2018-09-13T18:29:36.368Z,99.90
2018-09-13T18:32:06.269Z,99.90
2018-09-13T18:34:34.797Z,99.90
2018-09-13T18:37:03.296Z,99.90
2018-09-13T18:39:32.106Z,99.90
2018-09-13T18:42:01.401Z,99.90
2018-09-13T18:44:30.136Z,99.90
2018-09-13T18:47:00.175Z,99.90
2018-09-13T18:49:29.535Z,99.90
2018-09-13T18:51:57.874Z,99.90
2018-09-13T18:54:26.920Z,99.90
2018-09-13T18:56:55.314Z,99.90
2018-09-13T18:59:23.937Z,99.90
2018-09-13T19:01:53.632Z,99.90
2018-09-13T19:04:22.033Z,99.90
2018-09-13T19:06:50.814Z,99.90
2018-09-13T19:09:18.764Z,99.90
2018-09-13T19:11:46.820Z,99.90
2018-09-13T19:14:16.497Z,99.90
2018-09-13T19:16:45.198Z,99.90
2018-09-13T19:19:14.821Z,99.90
2018-09-13T19:21:53.176Z,99.90
2018-09-13T19:24:22.082Z,99.90
2018-09-13T19:26:50.738Z,99.90
2018-09-13T19:29:19.325Z,99.90
2018-09-13T19:31:51.239Z,99.90
2018-09-13T19:34:20.037Z,99.90
2018-09-13T19:36:48.893Z,99.90
2018-09-13T19:39:17.626Z,99.90
2018-09-13T19:42:03.417Z,99.90
2018-09-13T19:44:32.788Z,99.90
2018-09-13T19:47:02.434Z,99.90
2018-09-13T19:49:31.436Z,99.90
2018-09-13T19:52:01.272Z,99.90
2018-09-13T19:54:30.222Z,99.90
2018-09-13T19:56:59.668Z,99.90
2018-09-13T19:59:28.431Z,99.90
2018-09-13T20:02:00.869Z,99.90
2018-09-13T20:04:30.023Z,99.90
2018-09-13T20:06:58.562Z,99.90
2018-09-13T20:09:27.199Z,99.90
2018-09-13T20:11:56.220Z,99.90
2018-09-13T20:14:25.389Z,99.90
2018-09-13T20:16:53.895Z,99.90
2018-09-13T20:19:22.757Z,99.90
2018-09-13T20:21:51.754Z,99.90
2018-09-13T20:24:20.424Z,99.90
2018-09-13T20:26:48.924Z,99.90
2018-09-13T20:29:17.216Z,99.90
2018-09-13T20:31:45.657Z,99.90
2018-09-13T20:34:14.010Z,99.90
2018-09-13T20:36:42.542Z,99.90
2018-09-13T20:39:11.236Z,99.90
2018-09-13T20:41:39.640Z,99.90
2018-09-13T20:44:08.310Z,99.90
2018-09-13T20:46:36.576Z,99.90
2018-09-13T20:49:04.840Z,99.90
2018-09-13T20:51:33.331Z,99.90
2018-09-13T20:54:01.826Z,99.90
2018-09-13T20:56:30.229Z,99.90
2018-09-13T20:58:58.646Z,99.90
2018-09-13T21:01:27.021Z,99.90
2018-09-13T21:03:55.637Z,99.90
2018-09-13T21:06:24.133Z,99.90
2018-09-13T21:08:59.674Z,99.90
2018-09-13T21:11:27.830Z,99.90
2018-09-13T21:13:56.710Z,99.90
2018-09-13T21:16:25.094Z,99.90
2018-09-13T21:18:53.709Z,99.90
2018-09-13T21:21:23.038Z,99.90
2018-09-13T21:23:51.549Z,99.90
2018-09-13T21:26:19.826Z,99.90
2018-09-13T21:28:48.854Z,99.90
2018-09-13T21:31:17.197Z,99.90
2018-09-13T21:33:45.651Z,99.90
2018-09-13T21:36:14.244Z,99.90
2018-09-13T21:38:42.660Z,99.90
2018-09-13T21:41:11.208Z,99.90
2018-09-13T21:43:39.421Z,99.90
2018-09-13T21:46:08.767Z,99.90
2018-09-13T21:48:37.062Z,99.90
2018-09-13T21:51:05.560Z,99.90
2018-09-13T21:53:33.935Z,99.90
2018-09-13T21:56:02.338Z,99.90
2018-09-13T21:58:30.965Z,99.90
2018-09-13T22:00:59.489Z,99.90
2018-09-13T22:03:27.874Z,99.90
2018-09-13T22:05:56.469Z,99.90
2018-09-13T22:08:24.876Z,99.90
2018-09-13T22:10:53.164Z,99.90
2018-09-13T22:13:21.751Z,99.90
2018-09-13T22:15:50.144Z,99.90
2018-09-13T22:18:18.580Z,99.90
2018-09-13T22:20:46.852Z,99.90
2018-09-13T22:23:15.475Z,99.90
2018-09-13T22:25:43.870Z,99.90
2018-09-13T22:28:12.176Z,99.90
2018-09-13T22:30:40.646Z,99.90
2018-09-13T22:33:09.080Z,99.90
2018-09-13T22:37:45.096Z,99.90
2018-09-13T22:40:13.708Z,99.90
2018-09-13T22:42:42.547Z,99.90
2018-09-13T22:45:10.708Z,99.90
2018-09-13T22:47:39.134Z,99.90
2018-09-13T22:50:08.634Z,99.90
2018-09-13T22:52:36.746Z,99.90
2018-09-13T22:55:05.100Z,99.90
2018-09-13T22:57:33.661Z,99.90
2018-09-13T23:00:02.226Z,99.90
2018-09-13T23:02:34.987Z,99.90
2018-09-13T23:05:03.441Z,99.90
2018-09-13T23:07:31.823Z,99.90
2018-09-13T23:10:00.900Z,99.90
2018-09-13T23:12:29.455Z,99.90
2018-09-13T23:14:57.754Z,99.90
2018-09-13T23:17:26.298Z,99.90
2018-09-13T23:19:54.550Z,99.90
2018-09-13T23:22:23.870Z,99.90
2018-09-13T23:24:52.242Z,99.90
2018-09-13T23:27:20.774Z,99.90
2018-09-13T23:29:49.068Z,99.90
2018-09-13T23:32:23.197Z,99.90
2018-09-13T23:34:51.697Z,99.90
2018-09-13T23:37:20.092Z,99.90
2018-09-13T23:39:48.979Z,99.90
2018-09-13T23:42:17.205Z,99.90
2018-09-13T23:44:45.735Z,99.90
2018-09-13T23:47:13.885Z,99.90
2018-09-13T23:49:42.421Z,99.90
2018-09-13T23:52:11.007Z,99.90
2018-09-13T23:54:46.539Z,99.90
2018-09-13T23:57:14.855Z,99.90
2018-09-13T23:59:43.367Z,99.90
